createdAt,value
2022-12-13T00:01:34.176Z,100.00
2022-12-13T00:04:05.151Z,100.00
2022-12-13T00:06:34.141Z,100.00
2022-12-13T00:09:01.980Z,100.00
2022-12-13T00:11:31.819Z,100.00
2022-12-13T00:14:00.018Z,100.00
2022-12-13T00:16:28.513Z,100.00
2022-12-13T00:18:58.571Z,100.00
2022-12-13T00:21:29.349Z,100.00
2022-12-13T00:23:57.941Z,100.00
2022-12-13T00:26:28.051Z,100.00
2022-12-13T00:28:57.248Z,100.00
2022-12-13T00:34:13.763Z,100.00
2022-12-13T00:36:41.987Z,100.00
2022-12-13T00:39:12.735Z,100.00
2022-12-13T00:41:41.473Z,100.00
2022-12-13T00:44:11.847Z,100.00
2022-12-13T00:46:40.565Z,100.00
2022-12-13T00:49:08.582Z,100.00
2022-12-13T00:51:37.030Z,100.00
2022-12-13T00:54:05.290Z,100.00
2022-12-13T00:56:34.672Z,100.00
2022-12-13T00:59:02.842Z,100.00
2022-12-13T01:01:34.238Z,100.00
2022-12-13T01:04:04.401Z,100.00
2022-12-13T01:06:36.872Z,100.00
2022-12-13T01:09:06.520Z,100.00
2022-12-13T01:11:35.203Z,100.00
2022-12-13T01:14:02.993Z,100.00
2022-12-13T01:16:32.479Z,100.00
2022-12-13T01:19:00.366Z,100.00
2022-12-13T01:21:29.888Z,100.00
2022-12-13T01:24:01.876Z,100.00
2022-12-13T01:26:30.188Z,100.00
2022-12-13T01:28:58.156Z,100.00
2022-12-13T01:31:27.252Z,100.00
2022-12-13T01:33:56.516Z,100.00
2022-12-13T01:36:27.990Z,100.00
2022-12-13T01:38:58.312Z,100.00
2022-12-13T01:41:28.926Z,100.00
2022-12-13T01:44:01.091Z,100.00
2022-12-13T01:46:29.747Z,100.00
2022-12-13T01:49:04.507Z,100.00
2022-12-13T01:51:38.660Z,100.00
2022-12-13T01:54:09.388Z,100.00
2022-12-13T01:56:42.171Z,100.00
2022-12-13T01:59:12.167Z,100.00
2022-12-13T02:01:41.340Z,100.00
2022-12-13T02:04:10.559Z,100.00
2022-12-13T02:06:43.474Z,100.00
2022-12-13T02:09:11.535Z,100.00
2022-12-13T02:11:43.547Z,100.00
2022-12-13T02:14:11.802Z,100.00
2022-12-13T02:16:53.818Z,100.00
2022-12-13T02:19:58.619Z,100.00
2022-12-13T02:22:45.867Z,100.00
2022-12-13T02:25:41.577Z,100.00
2022-12-13T02:28:36.181Z,100.00
2022-12-13T02:31:11.440Z,100.00
2022-12-13T02:33:50.924Z,100.00
2022-12-13T02:36:24.768Z,100.00
2022-12-13T02:38:59.904Z,100.00
2022-12-13T02:41:34.571Z,100.00
2022-12-13T02:44:21.813Z,100.00
2022-12-13T02:46:56.694Z,100.00
2022-12-13T02:49:29.038Z,100.00
2022-12-13T02:51:58.857Z,100.00
2022-12-13T02:54:27.144Z,100.00
2022-12-13T02:56:56.069Z,100.00
2022-12-13T02:59:28.285Z,100.00
2022-12-13T03:02:10.899Z,100.00
2022-12-13T03:05:07.466Z,100.00
2022-12-13T03:07:44.273Z,100.00
2022-12-13T03:10:20.215Z,100.00
2022-12-13T03:13:13.631Z,100.00
2022-12-13T03:15:46.241Z,100.00
2022-12-13T03:18:19.368Z,100.00
2022-12-13T03:20:49.984Z,100.00
2022-12-13T03:23:19.738Z,100.00
2022-12-13T03:25:50.760Z,100.00
2022-12-13T03:28:19.291Z,100.00
2022-12-13T03:30:47.897Z,100.00
2022-12-13T03:33:17.229Z,100.00
2022-12-13T03:35:46.051Z,100.00
2022-12-13T03:38:21.591Z,100.00
2022-12-13T03:40:53.887Z,100.00
2022-12-13T03:43:23.042Z,100.00
2022-12-13T03:45:51.903Z,100.00
2022-12-13T03:48:23.401Z,100.00
2022-12-13T03:50:54.510Z,100.00
2022-12-13T03:53:32.427Z,100.00
2022-12-13T03:56:03.378Z,100.00
2022-12-13T03:58:34.998Z,100.00
2022-12-13T04:01:07.349Z,100.00
2022-12-13T04:03:37.436Z,100.00
2022-12-13T04:06:06.700Z,100.00
2022-12-13T04:08:34.961Z,100.00
2022-12-13T04:11:24.579Z,100.00
2022-12-13T04:13:52.624Z,100.00
2022-12-13T04:16:21.192Z,100.00
2022-12-13T04:18:50.695Z,100.00
2022-12-13T04:21:19.046Z,100.00
2022-12-13T04:23:46.795Z,100.00
2022-12-13T04:26:14.798Z,100.00
2022-12-13T04:28:42.729Z,100.00
2022-12-13T04:31:10.773Z,100.00
2022-12-13T04:33:38.509Z,100.00
2022-12-13T04:36:09.249Z,100.00
2022-12-13T04:38:36.984Z,100.00
2022-12-13T04:41:06.886Z,100.00
2022-12-13T04:43:35.113Z,100.00
2022-12-13T04:46:03.225Z,100.00
2022-12-13T04:48:32.359Z,100.00
2022-12-13T04:51:02.115Z,100.00
2022-12-13T04:53:31.341Z,100.00
2022-12-13T04:55:59.744Z,100.00
2022-12-13T04:58:28.681Z,100.00
2022-12-13T05:00:57.261Z,100.00
2022-12-13T05:03:25.441Z,100.00
2022-12-13T05:05:53.665Z,100.00
2022-12-13T05:08:21.613Z,100.00
2022-12-13T05:10:50.992Z,100.00
2022-12-13T05:13:19.006Z,100.00
2022-12-13T05:15:52.058Z,100.00
2022-12-13T05:18:23.008Z,100.00
2022-12-13T05:20:51.966Z,100.00
2022-12-13T05:23:22.697Z,100.00
2022-12-13T05:25:52.955Z,100.00
2022-12-13T05:28:27.524Z,100.00
2022-12-13T05:30:58.946Z,100.00
2022-12-13T05:33:27.122Z,100.00
2022-12-13T05:36:00.026Z,100.00
2022-12-13T05:38:29.906Z,100.00
2022-12-13T05:40:59.319Z,100.00
2022-12-13T05:43:42.284Z,100.00
2022-12-13T05:46:12.736Z,100.00
2022-12-13T05:48:41.001Z,100.00
2022-12-13T05:51:10.804Z,100.00
2022-12-13T05:53:40.814Z,100.00
2022-12-13T05:56:11.340Z,100.00
2022-12-13T05:58:40.937Z,100.00
2022-12-13T06:01:11.169Z,100.00
2022-12-13T06:03:39.042Z,100.00
2022-12-13T06:06:09.486Z,100.00
2022-12-13T06:08:38.195Z,100.00
2022-12-13T06:11:09.910Z,100.00
2022-12-13T06:13:43.465Z,100.00
2022-12-13T06:16:22.987Z,100.00
2022-12-13T06:18:59.321Z,100.00
2022-12-13T06:21:41.038Z,100.00
2022-12-13T06:24:12.041Z,100.00
2022-12-13T06:26:40.069Z,100.00
2022-12-13T06:29:10.356Z,100.00
2022-12-13T06:31:38.566Z,100.00
2022-12-13T06:34:13.801Z,100.00
2022-12-13T06:36:43.449Z,100.00
2022-12-13T06:39:11.406Z,100.00
2022-12-13T06:41:39.435Z,100.00
2022-12-13T06:44:08.864Z,100.00
2022-12-13T06:46:36.902Z,100.00
2022-12-13T06:49:08.763Z,100.00
2022-12-13T06:51:36.788Z,100.00
2022-12-13T06:54:04.723Z,100.00
2022-12-13T06:56:33.727Z,100.00
2022-12-13T06:59:02.402Z,100.00
2022-12-13T07:01:37.829Z,100.00
2022-12-13T07:04:30.288Z,100.00
2022-12-13T07:07:01.163Z,100.00
2022-12-13T07:09:30.696Z,100.00
2022-12-13T07:11:58.751Z,100.00
2022-12-13T07:14:26.797Z,100.00
2022-12-13T07:17:03.059Z,100.00
2022-12-13T07:19:42.193Z,100.00
2022-12-13T07:22:10.530Z,100.00
2022-12-13T07:24:38.297Z,100.00
2022-12-13T07:27:06.299Z,100.00
2022-12-13T07:29:34.305Z,100.00
2022-12-13T07:32:03.698Z,100.00
2022-12-13T07:34:31.467Z,100.00
2022-12-13T07:36:59.741Z,100.00
2022-12-13T07:39:27.728Z,100.00
2022-12-13T07:41:56.554Z,100.00
2022-12-13T07:44:24.915Z,100.00
2022-12-13T07:46:53.176Z,100.00
2022-12-13T07:49:22.354Z,100.00
2022-12-13T07:51:50.697Z,100.00
2022-12-13T07:54:18.731Z,100.00
2022-12-13T07:56:46.781Z,100.00
2022-12-13T07:59:15.052Z,100.00
2022-12-13T08:01:43.117Z,100.00
2022-12-13T08:04:10.964Z,100.00
2022-12-13T08:06:40.838Z,100.00
2022-12-13T08:09:08.578Z,100.00
2022-12-13T08:11:36.620Z,100.00
2022-12-13T08:14:04.640Z,100.00
2022-12-13T08:16:32.943Z,100.00
2022-12-13T08:19:04.302Z,100.00
2022-12-13T08:21:53.822Z,100.00
2022-12-13T08:24:24.738Z,100.00
2022-12-13T08:26:53.513Z,100.00
2022-12-13T08:29:23.139Z,100.00
2022-12-13T08:32:02.445Z,100.00
2022-12-13T08:34:30.587Z,100.00
2022-12-13T08:37:02.031Z,100.00
2022-12-13T08:39:34.313Z,100.00
2022-12-13T08:42:15.966Z,100.00
2022-12-13T08:44:48.373Z,100.00
2022-12-13T08:47:23.165Z,100.00
2022-12-13T08:49:54.455Z,100.00
2022-12-13T08:52:23.732Z,100.00
2022-12-13T08:54:52.891Z,100.00
2022-12-13T08:57:21.296Z,100.00
2022-12-13T08:59:49.074Z,100.00
2022-12-13T09:02:17.521Z,100.00
2022-12-13T09:04:46.526Z,100.00
2022-12-13T09:07:14.675Z,100.00
2022-12-13T09:09:42.461Z,100.00
2022-12-13T09:12:30.717Z,100.00
2022-12-13T09:15:01.457Z,100.00
2022-12-13T09:17:36.933Z,100.00
2022-12-13T09:20:10.384Z,100.00
2022-12-13T09:23:01.145Z,100.00
2022-12-13T09:25:36.471Z,100.00
2022-12-13T09:28:09.579Z,100.00
2022-12-13T09:30:38.668Z,100.00
2022-12-13T09:33:18.186Z,100.00
2022-12-13T09:35:54.655Z,100.00
2022-12-13T09:38:22.879Z,100.00
2022-12-13T09:40:58.736Z,100.00
2022-12-13T09:43:42.724Z,100.00
2022-12-13T09:46:23.317Z,100.00
2022-12-13T09:49:01.591Z,100.00
2022-12-13T09:51:43.570Z,100.00
2022-12-13T09:54:19.106Z,100.00
2022-12-13T09:56:51.063Z,100.00
2022-12-13T09:59:27.298Z,100.00
2022-12-13T10:01:55.908Z,100.00
2022-12-13T10:04:24.648Z,100.00
2022-12-13T10:06:54.485Z,100.00
2022-12-13T10:09:23.851Z,100.00
2022-12-13T10:11:53.613Z,100.00
2022-12-13T10:14:28.711Z,100.00
2022-12-13T10:17:00.749Z,100.00
2022-12-13T10:19:36.035Z,99.95
2022-12-13T10:22:07.043Z,99.45
2022-12-13T10:24:51.043Z,98.35
2022-12-13T10:27:21.647Z,98.74
2022-12-13T10:30:08.356Z,98.09
2022-12-13T10:32:47.290Z,97.05
2022-12-13T10:35:26.108Z,97.69
2022-12-13T10:37:55.358Z,95.74
2022-12-13T10:40:32.296Z,96.44
2022-12-13T10:43:08.853Z,96.88
2022-12-13T10:45:38.860Z,96.37
2022-12-13T10:48:18.140Z,96.78
2022-12-13T10:50:57.978Z,96.98
2022-12-13T10:53:31.319Z,98.57
2022-12-13T10:56:02.418Z,98.53
2022-12-13T10:58:39.535Z,98.65
2022-12-13T11:01:21.334Z,97.71
2022-12-13T11:04:01.905Z,98.92
2022-12-13T11:06:44.078Z,98.09
2022-12-13T11:09:22.632Z,97.70
2022-12-13T11:11:58.316Z,95.99
2022-12-13T11:14:31.648Z,93.86
2022-12-13T11:17:10.003Z,90.52
2022-12-13T11:19:41.225Z,92.13
2022-12-13T11:22:11.367Z,94.33
2022-12-13T11:24:43.423Z,94.37
2022-12-13T11:27:29.676Z,95.69
2022-12-13T11:30:20.940Z,95.72
2022-12-13T11:33:11.770Z,96.04
2022-12-13T11:35:53.864Z,97.67
2022-12-13T11:38:29.507Z,98.45
2022-12-13T11:41:03.952Z,98.70
2022-12-13T11:43:38.758Z,98.05
2022-12-13T11:46:15.609Z,98.49
2022-12-13T11:48:51.012Z,97.80
2022-12-13T11:51:25.311Z,95.80
2022-12-13T11:53:57.789Z,96.40
2022-12-13T11:56:28.598Z,96.84
2022-12-13T11:59:07.131Z,98.67
2022-12-13T12:01:43.031Z,99.26
2022-12-13T12:04:22.705Z,99.09
2022-12-13T12:06:56.759Z,100.00
2022-12-13T12:09:29.076Z,99.88
2022-12-13T12:12:02.107Z,99.25
2022-12-13T12:14:41.093Z,98.74
2022-12-13T12:17:13.743Z,99.18
2022-12-13T12:19:46.768Z,98.91
2022-12-13T12:22:31.627Z,99.04
2022-12-13T12:25:16.210Z,99.60
2022-12-13T12:27:52.278Z,97.72
2022-12-13T12:30:24.361Z,96.88
2022-12-13T12:33:00.299Z,97.03
2022-12-13T12:35:52.180Z,98.72
2022-12-13T12:38:49.256Z,97.84
2022-12-13T12:41:45.086Z,98.54
2022-12-13T12:44:24.323Z,98.86
2022-12-13T12:47:32.553Z,100.00
2022-12-13T12:50:18.248Z,98.76
2022-12-13T12:53:01.079Z,100.00
2022-12-13T12:55:49.174Z,100.00
2022-12-13T12:58:28.078Z,99.72
2022-12-13T13:01:07.942Z,100.00
2022-12-13T13:03:40.008Z,100.00
2022-12-13T13:06:13.195Z,100.00
2022-12-13T13:08:51.674Z,100.00
2022-12-13T13:11:26.040Z,100.00
2022-12-13T13:14:08.117Z,100.00
2022-12-13T13:16:38.838Z,100.00
2022-12-13T13:19:41.736Z,100.00
2022-12-13T13:22:31.715Z,100.00
2022-12-13T13:25:21.801Z,100.00
2022-12-13T13:27:51.773Z,100.00
2022-12-13T13:30:22.200Z,100.00
2022-12-13T13:32:51.816Z,100.00
2022-12-13T13:35:54.319Z,100.00
2022-12-13T13:38:52.920Z,100.00
2022-12-13T13:41:42.039Z,100.00
2022-12-13T13:44:47.779Z,100.00
2022-12-13T13:47:17.980Z,100.00
2022-12-13T13:50:02.275Z,100.00
2022-12-13T13:52:36.851Z,100.00
2022-12-13T13:55:37.510Z,100.00
2022-12-13T13:58:38.537Z,100.00
2022-12-13T14:01:34.192Z,100.00
2022-12-13T14:04:38.326Z,100.00
2022-12-13T14:07:34.015Z,100.00
2022-12-13T14:10:22.819Z,100.00
2022-12-13T14:13:44.903Z,100.00
2022-12-13T14:16:52.723Z,100.00
2022-12-13T14:19:43.733Z,100.00
2022-12-13T14:22:23.568Z,100.00
2022-12-13T14:25:02.808Z,100.00
2022-12-13T14:27:44.043Z,100.00
2022-12-13T14:30:27.271Z,100.00
2022-12-13T14:32:57.799Z,100.00
2022-12-13T14:35:28.743Z,100.00
2022-12-13T14:37:59.020Z,100.00
2022-12-13T14:40:30.703Z,100.00
2022-12-13T14:42:59.496Z,100.00
2022-12-13T14:45:30.904Z,100.00
2022-12-13T14:48:01.922Z,100.00
2022-12-13T14:50:34.412Z,100.00
2022-12-13T14:53:03.688Z,100.00
2022-12-13T14:55:33.621Z,100.00
2022-12-13T14:58:03.734Z,100.00
2022-12-13T15:00:35.772Z,100.00
2022-12-13T15:03:05.522Z,100.00
2022-12-13T15:05:50.771Z,100.00
2022-12-13T15:08:21.082Z,100.00
2022-12-13T15:10:51.736Z,100.00
2022-12-13T15:13:29.699Z,100.00
2022-12-13T15:16:10.293Z,100.00
2022-12-13T15:18:38.868Z,100.00
2022-12-13T15:21:21.464Z,99.57
2022-12-13T15:23:50.078Z,99.99
2022-12-13T15:26:28.541Z,100.00
2022-12-13T15:29:01.214Z,100.00
2022-12-13T15:31:34.203Z,99.80
2022-12-13T15:34:29.004Z,99.23
2022-12-13T15:37:01.293Z,99.63
2022-12-13T15:39:30.956Z,100.00
2022-12-13T15:42:00.593Z,100.00
2022-12-13T15:44:31.125Z,100.00
2022-12-13T15:47:05.221Z,100.00
2022-12-13T15:49:36.443Z,100.00
2022-12-13T15:52:08.136Z,100.00
2022-12-13T15:54:36.306Z,100.00
2022-12-13T15:57:14.140Z,99.58
2022-12-13T15:59:44.112Z,99.98
2022-12-13T16:02:18.365Z,98.16
2022-12-13T16:04:46.940Z,97.55
2022-12-13T16:07:24.851Z,96.63
2022-12-13T16:09:54.246Z,97.67
2022-12-13T16:12:25.976Z,97.68
2022-12-13T16:14:54.179Z,98.33
2022-12-13T16:17:41.814Z,98.58
2022-12-13T16:20:14.882Z,99.07
2022-12-13T16:22:43.141Z,99.37
2022-12-13T16:25:14.225Z,99.90
2022-12-13T16:27:42.079Z,100.00
2022-12-13T16:30:14.203Z,99.75
2022-12-13T16:33:17.631Z,99.77
2022-12-13T16:35:31.520Z,100.00
2022-12-13T16:38:00.871Z,100.00
2022-12-13T16:40:37.808Z,100.00
2022-12-13T16:43:07.994Z,100.00
2022-12-13T16:45:42.236Z,100.00
2022-12-13T16:48:13.021Z,100.00
2022-12-13T16:50:43.267Z,100.00
2022-12-13T16:53:17.014Z,100.00
2022-12-13T16:55:46.099Z,100.00
2022-12-13T16:58:26.859Z,100.00
2022-12-13T17:00:58.544Z,100.00
2022-12-13T17:03:29.565Z,100.00
2022-12-13T17:05:58.707Z,100.00
2022-12-13T17:08:27.718Z,100.00
2022-12-13T17:10:58.171Z,100.00
2022-12-13T17:13:26.870Z,100.00
2022-12-13T17:15:59.329Z,100.00
2022-12-13T17:18:29.205Z,100.00
2022-12-13T17:20:58.534Z,100.00
2022-12-13T17:23:27.543Z,100.00
2022-12-13T17:25:58.101Z,100.00
2022-12-13T17:28:26.675Z,100.00
2022-12-13T17:30:55.432Z,100.00
2022-12-13T17:33:24.025Z,100.00
2022-12-13T17:35:53.658Z,99.57
2022-12-13T17:38:21.403Z,99.75
2022-12-13T17:40:54.782Z,99.54
2022-12-13T17:43:33.036Z,98.83
2022-12-13T17:46:03.415Z,99.68
2022-12-13T17:48:37.570Z,100.00
2022-12-13T17:51:10.631Z,100.00
2022-12-13T17:53:41.040Z,100.00
2022-12-13T17:56:11.942Z,100.00
2022-12-13T17:58:40.257Z,100.00
2022-12-13T18:01:13.416Z,100.00
2022-12-13T18:03:41.473Z,100.00
2022-12-13T18:06:11.080Z,100.00
2022-12-13T18:08:42.345Z,100.00
2022-12-13T18:13:59.591Z,97.86
2022-12-13T18:16:35.809Z,100.00
2022-12-13T18:19:06.892Z,100.00
2022-12-13T18:21:37.005Z,100.00
2022-12-13T18:24:06.580Z,100.00
2022-12-13T18:26:35.068Z,100.00
2022-12-13T18:29:03.549Z,100.00
2022-12-13T18:31:32.070Z,100.00
2022-12-13T18:34:00.633Z,100.00
2022-12-13T18:36:28.836Z,100.00
2022-12-13T18:38:58.053Z,100.00
2022-12-13T18:41:28.854Z,100.00
2022-12-13T18:43:59.389Z,100.00
2022-12-13T18:46:32.880Z,100.00
2022-12-13T18:49:00.923Z,100.00
2022-12-13T18:51:29.209Z,100.00
2022-12-13T18:53:58.503Z,100.00
2022-12-13T18:56:26.704Z,100.00
2022-12-13T18:58:55.781Z,100.00
2022-12-13T19:01:26.774Z,100.00
2022-12-13T19:03:55.294Z,100.00
2022-12-13T19:06:25.422Z,100.00
2022-12-13T19:08:55.478Z,100.00
2022-12-13T19:11:27.519Z,100.00
2022-12-13T19:13:56.381Z,100.00
2022-12-13T19:16:25.929Z,100.00
2022-12-13T19:18:54.017Z,100.00
2022-12-13T19:21:22.910Z,100.00
2022-12-13T19:23:56.839Z,100.00
2022-12-13T19:26:28.853Z,100.00
2022-12-13T19:28:58.722Z,100.00
2022-12-13T19:31:31.777Z,100.00
2022-12-13T19:34:01.922Z,100.00
2022-12-13T19:36:30.680Z,100.00
2022-12-13T19:38:58.636Z,100.00
2022-12-13T19:41:28.284Z,100.00
2022-12-13T19:43:56.128Z,100.00
2022-12-13T19:46:24.617Z,100.00
2022-12-13T19:48:52.921Z,100.00
2022-12-13T19:51:21.430Z,100.00
2022-12-13T19:53:49.679Z,100.00
2022-12-13T19:56:19.568Z,100.00
2022-12-13T19:58:50.475Z,100.00
2022-12-13T20:01:19.207Z,100.00
2022-12-13T20:03:47.861Z,100.00
2022-12-13T20:06:17.837Z,100.00
2022-12-13T20:08:46.348Z,100.00
2022-12-13T20:11:17.033Z,100.00
2022-12-13T20:13:44.844Z,100.00
2022-12-13T20:16:18.439Z,100.00
2022-12-13T20:18:47.132Z,100.00
2022-12-13T20:21:16.216Z,100.00
2022-12-13T20:23:49.116Z,100.00
2022-12-13T20:26:21.800Z,100.00
2022-12-13T20:28:50.235Z,100.00
2022-12-13T20:31:22.495Z,100.00
2022-12-13T20:33:55.476Z,100.00
2022-12-13T20:36:26.390Z,100.00
2022-12-13T20:38:56.426Z,100.00
2022-12-13T20:41:26.151Z,100.00
2022-12-13T20:43:54.661Z,100.00
2022-12-13T20:46:25.269Z,100.00
2022-12-13T20:48:53.587Z,100.00
2022-12-13T20:51:24.057Z,100.00
2022-12-13T20:53:53.286Z,100.00
2022-12-13T20:56:23.195Z,100.00
2022-12-13T20:58:51.955Z,100.00
2022-12-13T21:01:22.132Z,100.00
2022-12-13T21:03:54.482Z,100.00
2022-12-13T21:06:22.626Z,100.00
2022-12-13T21:08:53.865Z,100.00
2022-12-13T21:11:27.506Z,100.00
2022-12-13T21:14:06.915Z,100.00
2022-12-13T21:16:38.832Z,100.00
2022-12-13T21:19:09.428Z,100.00
2022-12-13T21:21:38.487Z,100.00
2022-12-13T21:24:07.099Z,100.00
2022-12-13T21:26:36.563Z,100.00
2022-12-13T21:29:07.491Z,100.00
2022-12-13T21:31:36.832Z,100.00
2022-12-13T21:34:06.397Z,100.00
2022-12-13T21:36:37.674Z,100.00
2022-12-13T21:39:07.972Z,100.00
2022-12-13T21:41:36.279Z,100.00
2022-12-13T21:44:04.043Z,100.00
2022-12-13T21:46:55.190Z,100.00
2022-12-13T21:49:20.441Z,100.00
2022-12-13T21:51:49.779Z,100.00
2022-12-13T21:54:18.630Z,100.00
2022-12-13T21:57:04.291Z,100.00
2022-12-13T21:59:32.075Z,100.00
2022-12-13T22:02:15.822Z,100.00
2022-12-13T22:04:45.687Z,100.00
2022-12-13T22:07:16.748Z,100.00
2022-12-13T22:09:45.561Z,100.00
2022-12-13T22:12:20.257Z,100.00
2022-12-13T22:14:48.783Z,100.00
2022-12-13T22:17:16.964Z,100.00
2022-12-13T22:19:48.616Z,100.00
2022-12-13T22:22:19.579Z,100.00
2022-12-13T22:24:53.133Z,100.00
2022-12-13T22:27:23.727Z,100.00
2022-12-13T22:29:52.389Z,100.00
2022-12-13T22:32:20.890Z,100.00
2022-12-13T22:34:48.919Z,100.00
2022-12-13T22:37:17.001Z,100.00
2022-12-13T22:39:46.187Z,100.00
2022-12-13T22:42:14.568Z,100.00
2022-12-13T22:44:42.301Z,100.00
2022-12-13T22:47:10.408Z,100.00
2022-12-13T22:49:38.501Z,100.00
2022-12-13T22:52:06.644Z,100.00
2022-12-13T22:54:34.413Z,100.00
2022-12-13T22:57:03.915Z,100.00
2022-12-13T22:59:31.976Z,100.00
2022-12-13T23:02:03.070Z,100.00
2022-12-13T23:04:31.616Z,100.00
2022-12-13T23:06:59.784Z,100.00
2022-12-13T23:09:27.590Z,100.00
2022-12-13T23:12:13.677Z,100.00
2022-12-13T23:14:42.847Z,100.00
2022-12-13T23:17:11.198Z,100.00
2022-12-13T23:19:49.052Z,100.00
2022-12-13T23:22:19.280Z,100.00
2022-12-13T23:24:47.121Z,100.00
2022-12-13T23:27:15.217Z,100.00
2022-12-13T23:29:44.710Z,100.00
2022-12-13T23:32:12.939Z,100.00
2022-12-13T23:34:40.704Z,100.00
2022-12-13T23:37:08.921Z,100.00
2022-12-13T23:39:36.632Z,100.00
2022-12-13T23:42:04.813Z,100.00
2022-12-13T23:44:32.791Z,100.00
2022-12-13T23:47:02.217Z,100.00
2022-12-13T23:49:29.957Z,100.00
2022-12-13T23:51:58.075Z,100.00
2022-12-13T23:54:25.844Z,100.00
2022-12-13T23:56:53.943Z,100.00
2022-12-13T23:59:21.823Z,100.00
